Saltar para o conteúdo principal

Ourique / Santana Da Serra

ID 1210785 · 37.5025, -8.3019 mapa

Última leitura · 2026-05-09 18:00 (Europe/Lisbon)

Temperatura
16.1 °C
Humidade
77 %
Pressão
1,008.9 hPa
Precipitação
Radiação
1,210 W/m²
Velocidade do vento
Direcção do vento
SE · Sudeste

Histórico de 24 horas

Hora (Europe/Lisbon) Temperatura Humidade Pressão Chuva Vento Direcção
2026-05-09 18:00 16.1 °C 77 % 1,008.9 SE
2026-05-09 17:00 17.3 °C 66 % 1,008.2 SE
2026-05-09 16:00 17.0 °C 75 % 1,008.0 S
2026-05-09 15:00 17.4 °C 71 % 1,007.4 SE
2026-05-09 14:00 17.5 °C 66 % 1,007.3 SE
2026-05-09 13:00 17.5 °C 65 % 1,006.9 SE
2026-05-09 12:00 17.1 °C 67 % 1,006.4 SE
2026-05-09 11:00 15.8 °C 78 % 1,005.8 SE
2026-05-09 10:00 14.3 °C 88 % 1,005.1 SE
2026-05-09 09:00 14.6 °C 89 % 1,003.9 SE
2026-05-09 08:00 14.0 °C 92 % 1,003.4 E
2026-05-09 07:00 13.6 °C 91 % 1,003.9 E
2026-05-09 06:00 14.4 °C 87 % 1,004.0 E
2026-05-09 05:00 14.2 °C 91 % 1,004.4 E
2026-05-09 04:00 12.6 °C 91 % 1,005.4 E
2026-05-09 03:00 12.8 °C 90 % 1,006.3 E
2026-05-09 02:00 12.8 °C 91 % 1,006.9 E
2026-05-09 01:00 12.2 °C 91 % 1,007.8 E
2026-05-09 00:00 11.8 °C 91 % 1,008.3 E
2026-05-08 23:00 12.3 °C 90 % 1,008.4 E
2026-05-08 22:00 12.8 °C 92 % 1,008.8 E
2026-05-08 21:00 13.4 °C 91 % 1,008.0 E
2026-05-08 20:00 13.8 °C 89 % 1,008.1 E
2026-05-08 19:00 14.6 °C 87 % 1,008.1 E